Time,TemperatureF,DewpointF,PressureIn,WindDirection,WindDirectionDegrees,WindSpeedMPH,WindSpeedGustMPH,Humidity,HourlyPrecipIn,Conditions,Clouds,dailyrainin,SoftwareType,DateUTC
2017-04-27 00:00:00,69.3,64.2,30.10,SSE,167,1.0,3.0,84,0.00,SKC,,0.00,WeatherDisplay:10.37,2017-04-27 04:00:00,
2017-04-27 00:10:00,69.3,64.2,30.10,SSE,166,0.0,3.0,84,0.00,SKC,,0.00,WeatherDisplay:10.37,2017-04-27 04:10:00,
2017-04-27 00:15:00,69.3,64.2,30.11,SSE,161,1.0,3.0,84,0.00,SKC,,0.00,WeatherDisplay:10.37,2017-04-27 04:15:00,
2017-04-27 00:25:00,69.3,64.2,30.10,South,175,1.0,2.0,84,0.00,SKC,,0.00,WeatherDisplay:10.37,2017-04-27 04:25:00,
2017-04-27 00:30:00,69.2,64.2,30.10,South,176,1.0,4.0,84,0.00,SKC,,0.00,WeatherDisplay:10.37,2017-04-27 04:30:00,
2017-04-27 00:40:00,69.3,64.2,30.10,South,171,1.0,3.0,84,0.00,SKC,,0.00,WeatherDisplay:10.37,2017-04-27 04:40:00,
2017-04-27 00:45:00,69.1,64.0,30.10,South,171,1.0,3.0,84,0.00,SKC,,0.00,WeatherDisplay:10.37,2017-04-27 04:45:00,
2017-04-27 00:55:00,69.1,64.0,30.11,SSE,149,1.0,2.0,84,0.00,SKC,,0.00,WeatherDisplay:10.37,2017-04-27 04:55:00,
2017-04-27 01:00:00,69.1,64.0,30.11,SE,143,1.0,3.0,84,0.00,SKC,,0.00,WeatherDisplay:10.37,2017-04-27 05:00:00,
2017-04-27 01:10:00,69.1,64.4,30.11,SSE,167,0.0,3.0,85,0.00,SKC,,0.00,WeatherDisplay:10.37,2017-04-27 05:10:00,
2017-04-27 01:15:00,68.9,64.2,30.11,South,171,0.0,2.0,85,0.00,SKC,,0.00,WeatherDisplay:10.37,2017-04-27 05:15:00,
2017-04-27 01:24:00,68.9,64.2,30.11,South,176,1.0,2.0,85,0.00,SKC,,0.00,WeatherDisplay:10.37,2017-04-27 05:24:00,
2017-04-27 01:30:00,68.7,64.0,30.11,South,172,0.0,2.0,85,0.00,SKC,,0.00,WeatherDisplay:10.37,2017-04-27 05:30:00,
2017-04-27 01:40:00,68.6,63.9,30.11,SSE,163,0.0,2.0,85,0.00,SKC,,0.00,WeatherDisplay:10.37,2017-04-27 05:40:00,
2017-04-27 01:45:00,68.5,63.8,30.11,South,172,1.0,2.0,85,0.00,SKC,,0.00,WeatherDisplay:10.37,2017-04-27 05:45:00,
2017-04-27 01:55:00,68.4,63.7,30.11,SSE,149,1.0,2.0,85,0.00,SKC,,0.00,WeatherDisplay:10.37,2017-04-27 05:55:00,
2017-04-27 02:05:00,68.2,63.8,30.11,South,176,1.0,2.0,86,0.00,CLR,,0.00,WeatherDisplay:10.37,2017-04-27 06:05:00,
2017-04-27 02:10:00,68.2,63.8,30.10,South,172,0.0,2.0,86,0.00,CLR,,0.00,WeatherDisplay:10.37,2017-04-27 06:10:00,
2017-04-27 02:15:00,68.2,63.8,30.10,South,171,0.0,2.0,86,0.00,CLR,,0.00,WeatherDisplay:10.37,2017-04-27 06:15:00,
2017-04-27 02:24:00,67.8,63.5,30.11,South,172,1.0,2.0,86,0.00,SKC,,0.00,WeatherDisplay:10.37,2017-04-27 06:24:00,
2017-04-27 02:30:00,67.6,63.3,30.11,SSE,158,1.0,2.0,86,0.00,SKC,,0.00,WeatherDisplay:10.37,2017-04-27 06:30:00,
2017-04-27 02:40:00,67.6,63.0,30.10,SSE,166,1.0,2.0,85,0.00,SKC,,0.00,WeatherDisplay:10.37,2017-04-27 06:40:00,
2017-04-27 02:45:00,67.5,62.8,30.11,South,171,0.0,2.0,85,0.00,SKC,,0.00,WeatherDisplay:10.37,2017-04-27 06:45:00,
2017-04-27 02:54:00,67.3,62.6,30.11,ESE,116,1.0,2.0,85,0.00,SKC,,0.00,WeatherDisplay:10.37,2017-04-27 06:54:00,
2017-04-27 03:00:00,67.1,62.4,30.11,SE,144,1.0,2.0,85,0.00,SKC,,0.00,WeatherDisplay:10.37,2017-04-27 07:00:00,
2017-04-27 03:10:00,66.9,62.3,30.11,South,172,0.0,2.0,85,0.00,SKC,,0.00,WeatherDisplay:10.37,2017-04-27 07:10:00,
2017-04-27 03:15:00,66.9,62.3,30.10,South,171,0.0,2.0,85,0.00,SKC,,0.00,WeatherDisplay:10.37,2017-04-27 07:15:00,
2017-04-27 03:24:00,66.7,62.1,30.11,South,172,0.0,2.0,85,0.00,SKC,,0.00,WeatherDisplay:10.37,2017-04-27 07:24:00,
2017-04-27 03:35:00,66.7,62.1,30.11,SSE,165,0.0,2.0,85,0.00,SKC,,0.00,WeatherDisplay:10.37,2017-04-27 07:35:00,
2017-04-27 03:40:00,66.6,61.9,30.11,SSE,158,0.0,2.0,85,0.00,SKC,,0.00,WeatherDisplay:10.37,2017-04-27 07:40:00,
2017-04-27 03:50:00,66.4,61.7,30.11,SSE,153,0.0,1.0,85,0.00,SKC,,0.00,WeatherDisplay:10.37,2017-04-27 07:50:00,
2017-04-27 03:55:00,66.2,61.6,30.11,SSE,153,0.0,2.0,85,0.00,SKC,,0.00,WeatherDisplay:10.37,2017-04-27 07:55:00,
2017-04-27 04:00:00,66.0,61.4,30.11,SSE,157,0.0,2.0,85,0.00,SKC,,0.00,WeatherDisplay:10.37,2017-04-27 08:00:00,
2017-04-27 04:10:00,66.0,61.4,30.11,SSE,154,0.0,2.0,85,0.00,SKC,,0.00,WeatherDisplay:10.37,2017-04-27 08:10:00,
2017-04-27 04:15:00,66.0,61.4,30.11,SE,144,0.0,2.0,85,0.00,SKC,,0.00,WeatherDisplay:10.37,2017-04-27 08:15:00,
2017-04-27 04:24:00,66.0,61.7,30.11,South,175,0.0,2.0,86,0.00,SKC,,0.00,WeatherDisplay:10.37,2017-04-27 08:24:00,
2017-04-27 04:30:00,65.9,61.5,30.11,SSE,163,0.0,1.0,86,0.00,SKC,,0.00,WeatherDisplay:10.37,2017-04-27 08:30:00,
2017-04-27 04:40:00,65.8,61.5,30.12,SSE,151,0.0,2.0,86,0.00,SKC,,0.00,WeatherDisplay:10.37,2017-04-27 08:40:00,
2017-04-27 04:45:00,65.7,61.4,30.12,South,171,0.0,0.0,86,0.00,SKC,,0.00,WeatherDisplay:10.37,2017-04-27 08:45:00,
2017-04-27 04:54:00,65.3,61.0,30.12,South,180,0.0,0.0,86,0.00,SKC,,0.00,WeatherDisplay:10.37,2017-04-27 08:54:00,
2017-04-27 05:00:00,65.1,60.8,30.12,South,180,0.0,0.0,86,0.00,SKC,,0.00,WeatherDisplay:10.37,2017-04-27 09:00:00,
2017-04-27 05:10:00,64.9,60.6,30.12,South,180,0.0,0.0,86,0.00,SKC,,0.00,WeatherDisplay:10.37,2017-04-27 09:10:00,
2017-04-27 05:15:00,64.8,60.5,30.12,South,180,0.0,0.0,86,0.00,SKC,,0.00,WeatherDisplay:10.37,2017-04-27 09:15:00,
2017-04-27 05:24:00,64.6,60.3,30.13,South,180,0.0,0.0,86,0.00,SKC,,0.00,WeatherDisplay:10.37,2017-04-27 09:24:00,
2017-04-27 05:30:00,64.4,60.1,30.13,South,180,0.0,0.0,86,0.00,SKC,,0.00,WeatherDisplay:10.37,2017-04-27 09:30:00,
2017-04-27 05:40:00,64.2,59.9,30.14,South,180,0.0,0.0,86,0.00,SKC,,0.00,WeatherDisplay:10.37,2017-04-27 09:40:00,
2017-04-27 05:45:00,64.2,59.9,30.14,South,180,0.0,0.0,86,0.00,SKC,,0.00,WeatherDisplay:10.37,2017-04-27 09:45:00,
2017-04-27 05:55:00,64.0,60.1,30.14,South,180,0.0,0.0,87,0.00,SKC,,0.00,WeatherDisplay:10.37,2017-04-27 09:55:00,
2017-04-27 06:00:00,63.9,59.9,30.14,South,180,0.0,0.0,87,0.00,SKC,,0.00,WeatherDisplay:10.37,2017-04-27 10:00:00,
2017-04-27 06:10:00,63.7,59.7,30.14,South,180,0.0,0.0,87,0.00,SKC,,0.00,WeatherDisplay:10.37,2017-04-27 10:10:00,
2017-04-27 06:15:00,63.3,59.4,30.14,South,180,0.0,0.0,87,0.00,SKC,,0.00,WeatherDisplay:10.37,2017-04-27 10:15:00,
2017-04-27 06:25:00,63.1,59.2,30.15,South,180,0.0,0.0,87,0.00,SKC,,0.00,WeatherDisplay:10.37,2017-04-27 10:25:00,
2017-04-27 06:30:00,63.0,59.0,30.14,South,180,0.0,0.0,87,0.00,SKC,,0.00,WeatherDisplay:10.37,2017-04-27 10:30:00,
2017-04-27 06:40:00,63.0,59.0,30.15,South,180,0.0,1.0,87,0.00,SKC,,0.00,WeatherDisplay:10.37,2017-04-27 10:40:00,
2017-04-27 06:45:00,63.1,59.5,30.14,South,180,0.0,0.0,88,0.00,SKC,,0.00,WeatherDisplay:10.37,2017-04-27 10:45:00,
2017-04-27 06:54:00,63.3,59.7,30.14,South,180,0.0,0.0,88,0.00,SKC,,0.00,WeatherDisplay:10.37,2017-04-27 10:54:00,
2017-04-27 07:00:00,63.3,60.0,30.14,South,180,0.0,0.0,89,0.00,SKC,,0.00,WeatherDisplay:10.37,2017-04-27 11:00:00,
2017-04-27 07:10:00,63.5,60.2,30.14,South,180,0.0,0.0,89,0.00,FEW,,0.00,WeatherDisplay:10.37,2017-04-27 11:10:00,
2017-04-27 07:15:00,63.5,60.2,30.15,South,180,0.0,0.0,89,0.00,FEW,,0.00,WeatherDisplay:10.37,2017-04-27 11:15:00,
2017-04-27 07:24:00,63.9,60.9,30.15,South,180,0.0,1.0,90,0.00,FEW,,0.00,WeatherDisplay:10.37,2017-04-27 11:24:00,
2017-04-27 07:30:00,64.0,61.0,30.15,South,180,0.0,0.0,90,0.00,FEW,,0.00,WeatherDisplay:10.37,2017-04-27 11:30:00,
2017-04-27 07:40:00,64.6,61.6,30.15,South,180,0.0,0.0,90,0.00,FEW,,0.00,WeatherDisplay:10.37,2017-04-27 11:40:00,
2017-04-27 07:45:00,64.9,62.2,30.15,SSW,206,0.0,0.0,91,0.00,FEW,,0.00,WeatherDisplay:10.37,2017-04-27 11:45:00,
2017-04-27 07:55:00,65.7,63.3,30.15,WSW,248,0.0,0.0,92,0.00,FEW,,0.00,WeatherDisplay:10.37,2017-04-27 11:55:00,
2017-04-27 08:00:00,66.2,64.1,30.15,WSW,248,0.0,0.0,93,0.00,FEW,,0.00,WeatherDisplay:10.37,2017-04-27 12:00:00,
2017-04-27 08:10:00,67.5,65.7,30.16,WSW,242,0.0,0.0,94,0.00,FEW,,0.00,WeatherDisplay:10.37,2017-04-27 12:10:00,
2017-04-27 08:15:00,68.0,66.2,30.16,SE,142,0.0,1.0,94,0.00,FEW,,0.00,WeatherDisplay:10.37,2017-04-27 12:15:00,
2017-04-27 08:24:00,69.1,67.6,30.16,SE,133,0.0,2.0,95,0.00,FEW,,0.00,WeatherDisplay:10.37,2017-04-27 12:24:00,
2017-04-27 08:30:00,69.4,68.6,30.16,SE,139,0.0,2.0,97,0.00,FEW,,0.00,WeatherDisplay:10.37,2017-04-27 12:30:00,
2017-04-27 08:40:00,71.5,70.6,30.16,SE,135,1.0,2.0,97,0.00,SCT,,0.00,WeatherDisplay:10.37,2017-04-27 12:40:00,
2017-04-27 08:45:00,73.4,71.5,30.16,South,177,1.0,2.0,94,0.00,SCT,,0.00,WeatherDisplay:10.37,2017-04-27 12:45:00,
2017-04-27 08:54:00,75.9,64.2,30.16,SSE,151,1.0,3.0,67,0.00,SCT,,0.00,WeatherDisplay:10.37,2017-04-27 12:54:00,
2017-04-27 09:00:00,77.0,61.6,30.16,SE,146,1.0,3.0,59,0.00,SCT,,0.00,WeatherDisplay:10.37,2017-04-27 13:00:00,
2017-04-27 09:10:00,78.4,60.4,30.16,SSE,148,1.0,3.0,54,0.00,SCT,,0.00,WeatherDisplay:10.37,2017-04-27 13:10:00,
2017-04-27 09:15:00,79.0,59.3,30.17,SSE,163,1.0,4.0,51,0.00,SCT,,0.00,WeatherDisplay:10.37,2017-04-27 13:15:00,
2017-04-27 09:24:00,79.9,60.1,30.17,SSW,194,0.0,3.0,51,0.00,SCT,,0.00,WeatherDisplay:10.37,2017-04-27 13:24:00,
2017-04-27 09:30:00,80.2,58.8,30.17,SSE,154,1.0,3.0,48,0.00,SCT,,0.00,WeatherDisplay:10.37,2017-04-27 13:30:00,
2017-04-27 09:40:00,80.1,57.4,30.16,SSE,153,1.0,3.0,46,0.00,SCT,,0.00,WeatherDisplay:10.37,2017-04-27 13:40:00,
2017-04-27 09:45:00,80.1,58.6,30.17,SE,144,1.0,5.0,48,0.00,SCT,,0.00,WeatherDisplay:10.37,2017-04-27 13:45:00,
2017-04-27 09:54:00,79.9,58.4,30.17,SSE,159,1.0,3.0,48,0.00,SCT,,0.00,WeatherDisplay:10.37,2017-04-27 13:54:00,
2017-04-27 10:00:00,80.2,57.0,30.17,SSE,158,1.0,5.0,45,0.00,SCT,,0.00,WeatherDisplay:10.37,2017-04-27 14:00:00,
2017-04-27 10:10:00,80.3,57.0,30.18,SSE,155,2.0,4.0,45,0.00,SCT,,0.00,WeatherDisplay:10.37,2017-04-27 14:10:00,
2017-04-27 10:15:00,81.1,58.4,30.18,SE,141,0.0,4.0,46,0.00,SCT,,0.00,WeatherDisplay:10.37,2017-04-27 14:15:00,
2017-04-27 10:25:00,80.3,57.0,30.18,SE,140,2.0,6.0,45,0.00,SCT,,0.00,WeatherDisplay:10.37,2017-04-27 14:25:00,
2017-04-27 10:30:00,79.2,57.2,30.18,ESE,115,2.0,6.0,47,0.00,SCT,,0.00,WeatherDisplay:10.37,2017-04-27 14:30:00,
2017-04-27 10:40:00,78.1,59.0,30.18,SE,143,1.0,6.0,52,0.00,SCT,,0.00,WeatherDisplay:10.37,2017-04-27 14:40:00,
2017-04-27 10:45:00,79.3,56.7,30.18,SE,145,2.0,5.0,46,0.00,SCT,,0.00,WeatherDisplay:10.37,2017-04-27 14:45:00,
2017-04-27 10:55:00,81.0,54.4,30.18,SE,141,2.0,6.0,40,0.00,SCT,,0.00,WeatherDisplay:10.37,2017-04-27 14:55:00,
2017-04-27 11:00:00,81.1,53.1,30.18,SE,133,2.0,9.0,38,0.00,SCT,,0.00,WeatherDisplay:10.37,2017-04-27 15:00:00,
2017-04-27 11:10:00,81.0,53.0,30.18,SE,145,2.0,5.0,38,0.00,SCT,,0.00,WeatherDisplay:10.37,2017-04-27 15:10:00,
2017-04-27 11:15:00,81.3,51.0,30.18,SSE,161,2.0,6.0,35,0.00,SCT,,0.00,WeatherDisplay:10.37,2017-04-27 15:15:00,
2017-04-27 11:24:00,82.9,49.2,30.18,SE,134,2.0,7.0,31,0.00,SCT,,0.00,WeatherDisplay:10.37,2017-04-27 15:24:00,
2017-04-27 11:30:00,82.3,44.9,30.18,SE,125,1.0,7.0,27,0.00,SCT,,0.00,WeatherDisplay:10.37,2017-04-27 15:30:00,
2017-04-27 11:40:00,81.9,45.6,30.17,South,172,2.0,6.0,28,0.00,SCT,,0.00,WeatherDisplay:10.37,2017-04-27 15:40:00,
2017-04-27 11:45:00,82.0,50.1,30.17,SE,142,1.0,6.0,33,0.00,SCT,,0.00,WeatherDisplay:10.37,2017-04-27 15:45:00,
2017-04-27 11:54:00,82.5,48.0,30.17,ESE,112,2.0,7.0,30,0.00,OVC,,0.00,WeatherDisplay:10.37,2017-04-27 15:54:00,
2017-04-27 12:00:00,83.3,49.5,30.17,SE,134,0.0,5.0,31,0.00,OVC,,0.00,WeatherDisplay:10.37,2017-04-27 16:00:00,
2017-04-27 12:10:00,84.4,46.7,30.17,SE,142,1.0,5.0,27,0.00,OVC,,0.00,WeatherDisplay:10.37,2017-04-27 16:10:00,
2017-04-27 12:15:00,84.7,48.0,30.17,SE,135,1.0,6.0,28,0.00,OVC,,0.00,WeatherDisplay:10.37,2017-04-27 16:15:00,
2017-04-27 12:25:00,84.2,47.6,30.16,SE,143,3.0,12.0,28,0.00,OVC,,0.00,WeatherDisplay:10.37,2017-04-27 16:25:00,
2017-04-27 12:30:00,84.4,48.6,30.15,SSE,151,2.0,12.0,29,0.00,OVC,,0.00,WeatherDisplay:10.37,2017-04-27 16:30:00,
2017-04-27 12:40:00,85.4,50.5,30.15,South,169,0.0,3.0,30,0.00,OVC,,0.00,WeatherDisplay:10.37,2017-04-27 16:40:00,
2017-04-27 12:45:00,86.5,47.6,30.15,SSE,162,1.0,4.0,26,0.00,OVC,,0.00,WeatherDisplay:10.37,2017-04-27 16:45:00,
2017-04-27 12:54:00,86.2,48.3,30.14,SSE,162,0.0,4.0,27,0.00,OVC,,0.00,WeatherDisplay:10.37,2017-04-27 16:54:00,
2017-04-27 13:00:00,85.8,50.8,30.14,SSE,157,1.0,8.0,30,0.00,OVC,,0.00,WeatherDisplay:10.37,2017-04-27 17:00:00,
2017-04-27 13:10:00,85.8,50.8,30.13,SSE,152,0.0,4.0,30,0.00,OVC,,0.00,WeatherDisplay:10.37,2017-04-27 17:10:00,
2017-04-27 13:15:00,86.2,50.2,30.13,SSE,162,1.0,5.0,29,0.00,OVC,,0.00,WeatherDisplay:10.37,2017-04-27 17:15:00,
2017-04-27 13:25:00,86.0,48.1,30.12,SSE,152,3.0,7.0,27,0.00,OVC,,0.00,WeatherDisplay:10.37,2017-04-27 17:25:00,
2017-04-27 13:30:00,86.0,50.0,30.11,SSE,158,0.0,5.0,29,0.00,OVC,,0.00,WeatherDisplay:10.37,2017-04-27 17:30:00,
2017-04-27 13:40:00,86.7,48.7,30.11,SSE,161,1.0,5.0,27,0.00,FEW,,0.00,WeatherDisplay:10.37,2017-04-27 17:40:00,
2017-04-27 13:45:00,86.9,45.8,30.11,SSE,156,1.0,6.0,24,0.00,FEW,,0.00,WeatherDisplay:10.37,2017-04-27 17:45:00,
2017-04-27 13:54:00,86.5,43.2,30.11,SE,141,2.0,6.0,22,0.00,FEW,,0.00,WeatherDisplay:10.37,2017-04-27 17:54:00,
2017-04-27 14:00:00,86.4,41.8,30.11,SSE,151,1.0,5.0,21,0.00,FEW,,0.00,WeatherDisplay:10.37,2017-04-27 18:00:00,
2017-04-27 14:10:00,86.5,29.8,30.12,SSE,168,3.0,9.0,13,0.00,FEW,,0.00,WeatherDisplay:10.37,2017-04-27 18:10:00,
2017-04-27 14:15:00,86.2,34.7,30.11,South,171,1.0,6.0,16,0.00,FEW,,0.00,WeatherDisplay:10.37,2017-04-27 18:15:00,
2017-04-27 14:25:00,86.7,25.9,30.12,SSE,161,1.0,7.0,11,0.00,FEW,,0.00,WeatherDisplay:10.37,2017-04-27 18:25:00,
2017-04-27 14:30:00,86.7,28.0,30.11,SSE,162,1.0,6.0,12,0.00,FEW,,0.00,WeatherDisplay:10.37,2017-04-27 18:30:00,
2017-04-27 14:40:00,86.4,27.7,30.12,SSE,154,1.0,12.0,12,0.00,FEW,,0.00,WeatherDisplay:10.37,2017-04-27 18:40:00,
2017-04-27 14:45:00,86.7,28.0,30.12,SSE,159,1.0,13.0,12,0.00,FEW,,0.00,WeatherDisplay:10.37,2017-04-27 18:45:00,
2017-04-27 14:55:00,86.7,23.6,30.12,SE,140,2.0,6.0,10,0.00,FEW,,0.00,WeatherDisplay:10.37,2017-04-27 18:55:00,
2017-04-27 15:00:00,86.2,23.2,30.12,SSE,159,2.0,8.0,10,0.00,FEW,,0.00,WeatherDisplay:10.37,2017-04-27 19:00:00,
2017-04-27 15:10:00,85.8,22.9,30.12,SSE,167,3.0,7.0,10,0.00,CLR,,0.00,WeatherDisplay:10.37,2017-04-27 19:10:00,
2017-04-27 15:15:00,86.0,23.1,30.12,SSE,162,1.0,7.0,10,0.00,CLR,,0.00,WeatherDisplay:10.37,2017-04-27 19:15:00,
2017-04-27 15:24:00,86.7,23.6,30.12,SE,133,3.0,8.0,10,0.00,SKC,,0.00,WeatherDisplay:10.37,2017-04-27 19:24:00,
2017-04-27 15:30:00,86.5,23.5,30.12,SE,145,1.0,7.0,10,0.00,SKC,,0.00,WeatherDisplay:10.37,2017-04-27 19:30:00,
2017-04-27 15:40:00,86.5,23.5,30.12,SSE,168,1.0,7.0,10,0.00,SKC,,0.00,WeatherDisplay:10.37,2017-04-27 19:40:00,
2017-04-27 15:45:00,86.5,23.5,30.12,SSE,161,1.0,6.0,10,0.00,SKC,,0.00,WeatherDisplay:10.37,2017-04-27 19:45:00,
2017-04-27 15:54:00,87.1,23.9,30.12,SSE,148,2.0,5.0,10,0.00,SKC,,0.00,WeatherDisplay:10.37,2017-04-27 19:54:00,
2017-04-27 16:00:00,86.8,23.6,30.12,SSE,147,3.0,7.0,10,0.00,SKC,,0.00,WeatherDisplay:10.37,2017-04-27 20:00:00,
2017-04-27 16:10:00,86.7,23.6,30.12,SE,132,2.0,8.0,10,0.00,SKC,,0.00,WeatherDisplay:10.37,2017-04-27 20:10:00,
2017-04-27 16:15:00,85.8,22.9,30.12,SE,128,2.0,10.0,10,0.00,SKC,,0.00,WeatherDisplay:10.37,2017-04-27 20:15:00,
2017-04-27 16:24:00,84.7,31.9,30.13,SSE,164,1.0,7.0,15,0.00,SKC,,0.00,WeatherDisplay:10.37,2017-04-27 20:24:00,
2017-04-27 16:30:00,84.4,31.7,30.13,SSE,161,3.0,6.0,15,0.00,SKC,,0.00,WeatherDisplay:10.37,2017-04-27 20:30:00,
2017-04-27 16:40:00,82.5,47.9,30.13,SSE,163,1.0,8.0,30,0.00,SKC,,0.00,WeatherDisplay:10.37,2017-04-27 20:40:00,
2017-04-27 16:45:00,81.3,51.1,30.13,SSE,155,1.0,6.0,35,0.00,SKC,,0.00,WeatherDisplay:10.37,2017-04-27 20:45:00,
2017-04-27 16:54:00,83.3,40.5,30.12,SSE,159,1.0,9.0,22,0.00,SKC,,0.00,WeatherDisplay:10.37,2017-04-27 20:54:00,
2017-04-27 17:00:00,84.5,42.6,30.13,SSE,162,1.0,6.0,23,0.00,SKC,,0.00,WeatherDisplay:10.37,2017-04-27 21:00:00,
2017-04-27 17:10:00,84.2,41.2,30.14,SSE,165,1.0,9.0,22,0.00,SKC,,0.00,WeatherDisplay:10.37,2017-04-27 21:10:00,
2017-04-27 17:15:00,84.7,41.7,30.14,SSE,159,1.0,8.0,22,0.00,SKC,,0.00,WeatherDisplay:10.37,2017-04-27 21:15:00,
2017-04-27 17:24:00,84.6,42.7,30.14,SSE,156,1.0,8.0,23,0.00,SKC,,0.00,WeatherDisplay:10.37,2017-04-27 21:24:00,
2017-04-27 17:30:00,82.4,44.1,30.14,SSE,157,3.0,10.0,26,0.00,SKC,,0.00,WeatherDisplay:10.37,2017-04-27 21:30:00,
2017-04-27 17:40:00,80.3,47.7,30.14,SSE,168,3.0,9.0,32,0.00,SKC,,0.00,WeatherDisplay:10.37,2017-04-27 21:40:00,
2017-04-27 17:45:00,79.9,49.0,30.14,SSE,158,1.0,5.0,34,0.00,SKC,,0.00,WeatherDisplay:10.37,2017-04-27 21:45:00,
2017-04-27 17:54:00,79.2,49.9,30.15,South,171,1.0,9.0,36,0.00,SKC,,0.00,WeatherDisplay:10.37,2017-04-27 21:54:00,
2017-04-27 18:00:00,79.2,51.4,30.15,South,180,1.0,6.0,38,0.00,SKC,,0.00,WeatherDisplay:10.37,2017-04-27 22:00:00,
2017-04-27 18:10:00,79.0,51.9,30.15,South,186,2.0,5.0,39,0.00,SKC,,0.00,WeatherDisplay:10.37,2017-04-27 22:10:00,
2017-04-27 18:15:00,78.8,52.4,30.15,SSW,199,1.0,5.0,40,0.00,SKC,,0.00,WeatherDisplay:10.37,2017-04-27 22:15:00,
2017-04-27 18:24:00,78.4,52.1,30.15,SSW,197,2.0,6.0,40,0.00,SKC,,0.00,WeatherDisplay:10.37,2017-04-27 22:24:00,
2017-04-27 18:30:00,78.1,51.1,30.15,South,177,1.0,6.0,39,0.00,SKC,,0.00,WeatherDisplay:10.37,2017-04-27 22:30:00,
2017-04-27 18:40:00,77.7,52.1,30.14,SSE,166,3.0,6.0,41,0.00,SKC,,0.00,WeatherDisplay:10.37,2017-04-27 22:40:00,
2017-04-27 18:45:00,77.4,51.8,30.15,SSE,166,2.0,6.0,41,0.00,SKC,,0.00,WeatherDisplay:10.37,2017-04-27 22:45:00,
2017-04-27 18:54:00,76.8,52.6,30.15,SSE,156,1.0,3.0,43,0.00,SKC,,0.00,WeatherDisplay:10.37,2017-04-27 22:54:00,
2017-04-27 19:00:00,76.5,52.3,30.15,SSE,154,1.0,3.0,43,0.00,SKC,,0.00,WeatherDisplay:10.37,2017-04-27 23:00:00,
2017-04-27 19:10:00,75.9,51.8,30.15,SSE,163,2.0,6.0,43,0.00,CLR,,0.00,WeatherDisplay:10.37,2017-04-27 23:10:00,
2017-04-27 19:15:00,75.7,51.6,30.15,SSE,162,1.0,6.0,43,0.00,CLR,,0.00,WeatherDisplay:10.37,2017-04-27 23:15:00,
2017-04-27 19:24:00,75.2,51.8,30.15,SSE,161,0.0,5.0,44,0.00,CLR,,0.00,WeatherDisplay:10.37,2017-04-27 23:24:00,
2017-04-27 19:30:00,75.0,51.6,30.15,SSE,150,1.0,4.0,44,0.00,CLR,,0.00,WeatherDisplay:10.37,2017-04-27 23:30:00,
2017-04-27 19:40:00,74.5,52.3,30.15,South,173,0.0,3.0,46,0.00,CLR,,0.00,WeatherDisplay:10.37,2017-04-27 23:40:00,
2017-04-27 19:45:00,74.1,52.6,30.16,South,169,1.0,2.0,47,0.00,CLR,,0.00,WeatherDisplay:10.37,2017-04-27 23:45:00,
2017-04-27 19:55:00,73.8,52.8,30.16,SE,140,1.0,3.0,48,0.00,CLR,,0.00,WeatherDisplay:10.37,2017-04-27 23:55:00,
2017-04-27 20:00:00,73.4,53.1,30.15,SSE,157,1.0,4.0,49,0.00,CLR,,0.00,WeatherDisplay:10.37,2017-04-28 00:00:00,
2017-04-27 20:10:00,73.0,52.7,30.16,SSE,163,1.0,3.0,49,0.00,CLR,,0.00,WeatherDisplay:10.37,2017-04-28 00:10:00,
2017-04-27 20:15:00,73.0,52.7,30.16,South,175,1.0,3.0,49,0.00,CLR,,0.00,WeatherDisplay:10.37,2017-04-28 00:15:00,
2017-04-27 20:25:00,72.7,52.4,30.16,SSE,153,1.0,2.0,49,0.00,CLR,,0.00,WeatherDisplay:10.37,2017-04-28 00:25:00,
2017-04-27 20:35:00,72.5,52.2,30.16,South,173,0.0,2.0,49,0.00,CLR,,0.00,WeatherDisplay:10.37,2017-04-28 00:35:00,
2017-04-27 20:40:00,72.3,52.6,30.16,South,169,1.0,2.0,50,0.00,CLR,,0.00,WeatherDisplay:10.37,2017-04-28 00:40:00,
2017-04-27 20:45:00,72.1,52.5,30.16,South,172,1.0,2.0,50,0.00,CLR,,0.00,WeatherDisplay:10.37,2017-04-28 00:45:00,